KRKD/RKD METAR and TAF weather

Enter ICAO airport designator
Station Type Date Time Source
KRKD METAR 2019/10/20 18:56 UTC NOAA

KRKD 201856Z AUTO 18007KT 10SM CLR 11/05 A3009 RMK AO2 SLP191 T01110050


Station Type Date Time Source
KRKD Decoded METAR 2019/10/20 18:56 UTC NOAA

Rockland, Knox County Regional Airport, ME, United States (KRKD) 44-04N 069-06W
Oct 20, 2019 - 02:56 PM EDT / 2019.10.20 1856 UTC
Wind: from the S (180 degrees) at 8 MPH (7 KT):0
Visibility: 10 mile(s):0
Sky conditions: clear
Temperature: 52.0 F (11.1 C)
Dew Point: 41.0 F (5.0 C)
Relative Humidity: 66%
Pressure (altimeter): 30.09 in. Hg (1018 hPa)
ob: KRKD 201856Z AUTO 18007KT 10SM CLR 11/05 A3009 RMK AO2 SLP191 T01110050
cycle: 19

Station Type Date Time Source
KRKD TAF 2019/10/20 18:33 UTC NOAA

TAF KRKD 201730Z 2018/2118 VRB04KT P6SM BKN200

Example: see airport list